createdAt,value
2019-05-11T00:02:21.527Z,17.20
2019-05-11T00:04:56.345Z,17.30
2019-05-11T00:07:31.449Z,17.50
2019-05-11T00:10:07.143Z,17.60
2019-05-11T00:12:42.442Z,17.70
2019-05-11T00:15:17.245Z,17.80
2019-05-11T00:17:52.385Z,17.90
2019-05-11T00:20:27.297Z,18.00
2019-05-11T00:23:02.570Z,18.00
2019-05-11T00:25:37.768Z,18.10
2019-05-11T00:28:13.865Z,18.20
2019-05-11T00:30:48.981Z,18.20
2019-05-11T00:33:23.854Z,18.20
2019-05-11T00:35:59.136Z,18.20
2019-05-11T00:38:34.896Z,18.30
2019-05-11T00:41:10.442Z,18.30
2019-05-11T00:43:45.859Z,18.40
2019-05-11T00:46:20.769Z,18.50
2019-05-11T00:48:55.936Z,18.40
2019-05-11T00:51:30.805Z,18.50
2019-05-11T00:54:07.108Z,18.50
2019-05-11T00:56:42.106Z,18.60
2019-05-11T00:59:21.638Z,18.70
2019-05-11T01:01:53.627Z,18.80
2019-05-11T01:04:28.758Z,18.80
2019-05-11T01:07:03.933Z,18.80
2019-05-11T01:09:53.312Z,18.80
2019-05-11T01:12:28.203Z,18.90
2019-05-11T01:15:03.484Z,19.10
2019-05-11T01:17:38.491Z,19.10
2019-05-11T01:20:14.517Z,19.20
2019-05-11T01:22:49.752Z,19.10
2019-05-11T01:25:25.506Z,19.20
2019-05-11T01:28:00.262Z,19.30
2019-05-11T01:30:38.662Z,19.30
2019-05-11T01:33:12.346Z,19.30
2019-05-11T01:35:51.099Z,19.40
2019-05-11T01:38:24.521Z,19.60
2019-05-11T01:40:59.452Z,19.50
2019-05-11T01:43:34.645Z,19.70
2019-05-11T01:46:09.415Z,19.60
2019-05-11T01:48:44.227Z,19.60
2019-05-11T01:51:19.849Z,19.80
2019-05-11T01:53:54.818Z,19.80
2019-05-11T01:56:33.037Z,19.90
2019-05-11T01:59:07.939Z,19.80
2019-05-11T02:01:45.387Z,20.00
2019-05-11T02:04:20.447Z,20.00
2019-05-11T02:06:55.574Z,20.00
2019-05-11T02:09:30.591Z,20.00
2019-05-11T02:12:06.191Z,20.00
2019-05-11T02:14:41.100Z,20.10
2019-05-11T02:17:17.485Z,20.20
2019-05-11T02:19:52.726Z,20.20
2019-05-11T02:22:28.039Z,20.20
2019-05-11T02:25:08.502Z,20.10
2019-05-11T02:27:42.206Z,20.20
2019-05-11T02:30:17.461Z,20.20
2019-05-11T02:32:53.278Z,20.20
2019-05-11T02:35:28.163Z,20.20
2019-05-11T02:38:03.308Z,20.30
2019-05-11T02:40:38.171Z,20.40
2019-05-11T02:43:13.421Z,20.40
2019-05-11T02:46:08.583Z,20.50
2019-05-11T02:48:43.902Z,20.80
2019-05-11T02:51:18.849Z,20.80
2019-05-11T02:53:54.549Z,20.80
2019-05-11T02:56:30.517Z,20.60
2019-05-11T02:59:05.901Z,20.50
2019-05-11T03:01:42.496Z,20.80
2019-05-11T03:04:18.128Z,20.60
2019-05-11T03:06:53.579Z,20.20
2019-05-11T03:09:28.656Z,20.20
2019-05-11T03:12:03.449Z,20.10
2019-05-11T03:14:38.691Z,20.00
2019-05-11T03:17:17.254Z,20.00
2019-05-11T03:19:52.771Z,20.00
2019-05-11T03:22:28.154Z,20.10
2019-05-11T03:25:03.645Z,20.00
2019-05-11T03:27:38.950Z,20.00
2019-05-11T03:30:15.290Z,19.90
2019-05-11T03:32:49.998Z,19.90
2019-05-11T03:35:25.943Z,19.90
2019-05-11T03:38:00.920Z,19.90
2019-05-11T03:40:36.834Z,20.00
2019-05-11T03:43:11.879Z,20.00
2019-05-11T03:45:47.185Z,20.00
2019-05-11T03:48:21.985Z,20.00
2019-05-11T03:50:56.893Z,20.10
2019-05-11T03:53:32.622Z,20.30
2019-05-11T03:56:07.312Z,20.40
2019-05-11T03:58:42.377Z,20.30
2019-05-11T04:01:17.170Z,20.30
2019-05-11T04:03:52.480Z,20.40
2019-05-11T04:06:27.813Z,20.30
2019-05-11T04:09:05.805Z,20.30
2019-05-11T04:11:41.693Z,20.50
2019-05-11T04:14:17.109Z,20.60
2019-05-11T04:16:51.974Z,20.70
2019-05-11T04:19:27.214Z,20.60
2019-05-11T04:22:02.533Z,20.50
2019-05-11T04:24:37.266Z,20.30
2019-05-11T04:27:12.693Z,20.30
2019-05-11T04:29:47.647Z,20.20
2019-05-11T04:32:22.514Z,20.20
2019-05-11T04:35:00.788Z,20.20
2019-05-11T04:37:35.193Z,20.30
2019-05-11T04:40:10.610Z,20.20
2019-05-11T04:42:55.371Z,20.20
2019-05-11T04:45:21.809Z,20.30
2019-05-11T04:47:57.090Z,20.30
2019-05-11T04:50:32.001Z,20.30
2019-05-11T04:53:07.091Z,20.30
2019-05-11T04:55:42.388Z,20.30
2019-05-11T04:58:18.744Z,20.30
2019-05-11T05:00:53.620Z,20.30
2019-05-11T05:03:40.499Z,20.20
2019-05-11T05:06:22.034Z,20.10
2019-05-11T05:08:44.962Z,20.00
2019-05-11T05:11:20.392Z,20.00
2019-05-11T05:13:55.566Z,20.00
2019-05-11T05:16:31.505Z,20.00
2019-05-11T05:19:06.711Z,20.10
2019-05-11T05:21:41.596Z,20.00
2019-05-11T05:24:17.066Z,20.00
2019-05-11T05:26:52.050Z,20.10
2019-05-11T05:29:27.518Z,20.20
2019-05-11T05:32:02.667Z,20.20
2019-05-11T05:34:37.732Z,20.20
2019-05-11T05:37:13.215Z,20.20
2019-05-11T05:39:49.178Z,20.20
2019-05-11T05:42:24.073Z,20.30
2019-05-11T05:44:59.327Z,20.30
2019-05-11T05:47:35.826Z,20.20
2019-05-11T05:50:10.860Z,20.10
2019-05-11T05:52:46.692Z,20.00
2019-05-11T05:55:23.043Z,20.00
2019-05-11T05:57:58.325Z,19.90
2019-05-11T06:00:34.218Z,19.90
2019-05-11T06:03:09.398Z,19.80
2019-05-11T06:05:44.363Z,19.80
2019-05-11T06:08:19.677Z,19.80
2019-05-11T06:10:55.018Z,19.90
2019-05-11T06:13:44.582Z,19.90
2019-05-11T06:16:06.222Z,19.90
2019-05-11T06:18:41.243Z,19.80
2019-05-11T06:21:16.383Z,19.80
2019-05-11T06:23:51.304Z,19.80
2019-05-11T06:26:26.541Z,19.70
2019-05-11T06:29:01.222Z,19.70
2019-05-11T06:31:36.332Z,19.70
2019-05-11T06:34:11.326Z,19.50
2019-05-11T06:36:46.311Z,19.40
2019-05-11T06:39:21.321Z,19.20
2019-05-11T06:41:56.614Z,19.00
2019-05-11T06:44:31.676Z,18.80
2019-05-11T06:47:06.408Z,18.80
2019-05-11T06:49:41.493Z,18.70
2019-05-11T06:52:16.722Z,18.70
2019-05-11T06:54:51.924Z,18.60
2019-05-11T06:57:26.612Z,18.60
2019-05-11T07:00:21.447Z,18.50
2019-05-11T07:02:56.353Z,18.50
2019-05-11T07:05:31.485Z,18.40
2019-05-11T07:08:07.240Z,18.40
2019-05-11T07:10:43.071Z,18.40
2019-05-11T07:13:18.412Z,18.40
2019-05-11T07:15:54.620Z,18.40
2019-05-11T07:18:30.572Z,18.50
2019-05-11T07:21:05.924Z,18.50
2019-05-11T07:23:40.761Z,18.40
2019-05-11T07:26:16.150Z,18.40
2019-05-11T07:28:51.092Z,18.40
2019-05-11T07:31:26.152Z,18.40
2019-05-11T07:34:01.081Z,18.40
2019-05-11T07:36:38.581Z,18.30
2019-05-11T07:39:12.983Z,18.30
2019-05-11T07:41:48.049Z,18.20
2019-05-11T07:44:34.962Z,18.20
2019-05-11T07:46:59.364Z,18.10
2019-05-11T07:49:34.367Z,18.00
2019-05-11T07:52:23.713Z,17.90
2019-05-11T07:54:59.933Z,17.90
2019-05-11T07:57:35.225Z,17.80
2019-05-11T08:00:10.251Z,17.70
2019-05-11T08:02:45.083Z,17.70
2019-05-11T08:05:20.442Z,17.60
2019-05-11T08:07:55.513Z,17.60
2019-05-11T08:10:30.786Z,17.50
2019-05-11T08:13:08.927Z,17.50
2019-05-11T08:15:43.581Z,17.40
2019-05-11T08:18:19.087Z,17.40
2019-05-11T08:20:55.406Z,17.30
2019-05-11T08:23:34.976Z,17.20
2019-05-11T08:26:10.066Z,17.20
2019-05-11T08:28:45.199Z,17.10
2019-05-11T08:31:20.513Z,17.00
2019-05-11T08:33:55.499Z,17.00
2019-05-11T08:36:34.423Z,16.90
2019-05-11T08:39:10.614Z,16.90
2019-05-11T08:41:46.016Z,16.80
2019-05-11T08:44:21.071Z,16.80
2019-05-11T08:46:58.180Z,16.80
2019-05-11T08:49:33.849Z,16.70
2019-05-11T08:52:09.882Z,16.60
2019-05-11T08:54:44.857Z,16.60
2019-05-11T08:57:20.183Z,16.60
2019-05-11T08:59:57.671Z,16.50
2019-05-11T09:02:32.014Z,16.40
2019-05-11T09:05:08.224Z,16.40
2019-05-11T09:07:44.324Z,16.40
2019-05-11T09:10:20.814Z,16.30
2019-05-11T09:12:56.276Z,16.30
2019-05-11T09:15:36.783Z,16.20
2019-05-11T09:18:09.122Z,16.10
2019-05-11T09:20:44.403Z,16.20
2019-05-11T09:23:33.433Z,16.10
2019-05-11T09:26:19.435Z,16.10
2019-05-11T09:28:53.223Z,16.00
2019-05-11T09:31:28.098Z,15.90
2019-05-11T09:34:02.821Z,15.90
2019-05-11T09:36:38.968Z,15.80
2019-05-11T09:39:14.660Z,15.80
2019-05-11T09:41:49.601Z,15.70
2019-05-11T09:44:24.458Z,15.70
2019-05-11T09:47:02.346Z,15.60
2019-05-11T09:49:46.551Z,15.60
2019-05-11T09:52:12.102Z,15.50
2019-05-11T09:54:48.701Z,15.50
2019-05-11T09:57:27.608Z,15.50
2019-05-11T10:00:00.202Z,15.40
2019-05-11T10:02:38.541Z,15.40
2019-05-11T10:05:13.570Z,15.40
2019-05-11T10:07:48.743Z,15.30
2019-05-11T10:10:23.534Z,15.30
2019-05-11T10:12:59.058Z,15.20
2019-05-11T10:15:34.602Z,15.20
2019-05-11T10:18:10.242Z,15.20
2019-05-11T10:20:45.211Z,15.10
2019-05-11T10:23:20.917Z,15.10
2019-05-11T10:25:58.459Z,15.10
2019-05-11T10:28:32.283Z,15.00
2019-05-11T10:31:08.635Z,15.00
2019-05-11T10:33:44.160Z,15.00
2019-05-11T10:36:19.209Z,14.90
2019-05-11T10:38:54.463Z,14.90
2019-05-11T10:41:30.890Z,14.90
2019-05-11T10:44:08.091Z,14.80
2019-05-11T10:46:42.246Z,14.80
2019-05-11T10:49:18.497Z,14.70
2019-05-11T10:51:53.957Z,14.80
2019-05-11T10:54:29.013Z,14.80
2019-05-11T10:57:04.875Z,14.70
2019-05-11T10:59:41.060Z,14.60
2019-05-11T11:02:18.505Z,14.60
2019-05-11T11:04:53.088Z,14.60
2019-05-11T11:07:48.425Z,14.60
2019-05-11T11:10:23.873Z,14.60
2019-05-11T11:13:00.343Z,14.50
2019-05-11T11:15:37.892Z,14.40
2019-05-11T11:18:12.054Z,14.40
2019-05-11T11:20:48.822Z,14.40
2019-05-11T11:23:23.333Z,14.30
2019-05-11T11:25:58.586Z,14.30
2019-05-11T11:28:34.614Z,14.30
2019-05-11T11:31:09.879Z,14.30
2019-05-11T11:33:44.824Z,14.30
2019-05-11T11:36:20.218Z,14.20
2019-05-11T11:38:55.100Z,14.20
2019-05-11T11:41:30.910Z,14.20
2019-05-11T11:44:07.883Z,14.20
2019-05-11T11:46:52.005Z,14.20
2019-05-11T11:49:19.636Z,14.10
2019-05-11T11:51:58.082Z,14.10
2019-05-11T11:54:31.736Z,14.10
2019-05-11T11:57:07.736Z,14.10
2019-05-11T11:59:43.232Z,14.00
2019-05-11T12:02:19.275Z,14.10
2019-05-11T12:04:58.382Z,14.00
2019-05-11T12:10:29.115Z,13.90
2019-05-11T12:13:04.527Z,13.90
2019-05-11T12:15:42.735Z,13.90
2019-05-11T12:18:21.006Z,13.90
2019-05-11T12:20:55.750Z,13.80
2019-05-11T12:23:31.075Z,13.80
2019-05-11T12:26:08.315Z,13.70
2019-05-11T12:28:42.505Z,13.70
2019-05-11T12:31:18.442Z,13.70
2019-05-11T12:33:54.151Z,13.70
2019-05-11T12:36:29.092Z,13.70
2019-05-11T12:39:04.292Z,13.70
2019-05-11T12:41:39.225Z,13.60
2019-05-11T12:44:14.772Z,13.60
2019-05-11T12:46:49.791Z,13.60
2019-05-11T12:49:29.234Z,13.60
2019-05-11T12:52:04.403Z,13.50
2019-05-11T12:54:40.992Z,13.60
2019-05-11T12:57:18.642Z,13.60
2019-05-11T12:59:54.083Z,13.60
2019-05-11T13:02:29.058Z,13.60
2019-05-11T13:05:04.594Z,13.60
2019-05-11T13:07:39.723Z,13.50
2019-05-11T13:10:17.547Z,13.50
2019-05-11T13:12:52.555Z,13.50
2019-05-11T13:15:28.173Z,13.50
2019-05-11T13:18:03.324Z,13.50
2019-05-11T13:20:38.711Z,13.40
2019-05-11T13:23:13.611Z,13.40
2019-05-11T13:25:48.881Z,13.40
2019-05-11T13:28:23.773Z,13.40
2019-05-11T13:30:59.755Z,13.40
2019-05-11T13:33:34.660Z,13.40
2019-05-11T13:36:09.258Z,13.40
2019-05-11T13:38:44.104Z,13.40
2019-05-11T13:41:19.114Z,13.50
2019-05-11T13:43:54.290Z,13.40
2019-05-11T13:46:29.988Z,13.40
2019-05-11T13:49:05.427Z,13.30
2019-05-11T13:51:40.716Z,13.30
2019-05-11T13:54:18.239Z,13.30
2019-05-11T13:56:52.597Z,13.20
2019-05-11T13:59:27.966Z,13.20
2019-05-11T14:02:03.868Z,13.10
2019-05-11T14:04:38.796Z,13.20
2019-05-11T14:07:13.882Z,13.10
2019-05-11T14:09:48.616Z,13.00
2019-05-11T14:12:23.431Z,13.00
2019-05-11T14:14:58.327Z,13.00
2019-05-11T14:17:38.043Z,13.00
2019-05-11T14:20:11.236Z,13.00
2019-05-11T14:22:58.989Z,13.00
2019-05-11T14:25:54.210Z,13.00
2019-05-11T14:28:55.714Z,13.00
2019-05-11T14:31:50.484Z,13.00
2019-05-11T14:34:29.973Z,12.90
2019-05-11T14:37:05.978Z,12.90
2019-05-11T14:39:41.511Z,12.80
2019-05-11T14:42:21.680Z,12.80
2019-05-11T14:44:55.843Z,12.80
2019-05-11T14:47:31.184Z,12.70
2019-05-11T14:50:08.442Z,12.70
2019-05-11T14:52:42.672Z,12.70
2019-05-11T14:55:18.355Z,12.70
2019-05-11T14:57:53.345Z,12.70
2019-05-11T15:00:28.965Z,12.70
2019-05-11T15:03:04.354Z,12.60
2019-05-11T15:05:41.417Z,12.60
2019-05-11T15:08:17.836Z,12.60
2019-05-11T15:10:51.993Z,12.60
2019-05-11T15:13:28.637Z,12.60
2019-05-11T15:16:02.999Z,12.50
2019-05-11T15:18:41.776Z,12.60
2019-05-11T15:21:14.704Z,12.60
2019-05-11T15:23:49.822Z,12.60
2019-05-11T15:26:24.761Z,12.50
2019-05-11T15:29:00.214Z,12.50
2019-05-11T15:31:37.850Z,12.50
2019-05-11T15:34:11.468Z,12.50
2019-05-11T15:36:48.800Z,12.40
2019-05-11T15:39:22.460Z,12.40
2019-05-11T15:42:09.171Z,12.40
2019-05-11T15:44:33.480Z,12.40
2019-05-11T15:47:08.111Z,12.30
2019-05-11T15:49:43.235Z,12.30
2019-05-11T15:52:18.817Z,12.20
2019-05-11T15:54:54.193Z,12.20
2019-05-11T15:57:29.074Z,12.20
2019-05-11T16:00:04.767Z,12.20
2019-05-11T16:02:41.242Z,12.30
2019-05-11T16:05:18.134Z,12.30
2019-05-11T16:07:52.028Z,12.20
2019-05-11T16:10:48.694Z,12.20
2019-05-11T16:13:23.646Z,12.20
2019-05-11T16:15:59.028Z,12.20
2019-05-11T16:18:33.969Z,12.20
2019-05-11T16:21:09.140Z,12.20
2019-05-11T16:23:43.915Z,12.10
2019-05-11T16:26:19.023Z,12.10
2019-05-11T16:28:54.017Z,12.10
2019-05-11T16:31:29.535Z,12.10
2019-05-11T16:34:04.478Z,12.10
2019-05-11T16:36:39.505Z,12.00
2019-05-11T16:39:14.663Z,12.00
2019-05-11T16:41:49.628Z,12.10
2019-05-11T16:44:24.634Z,12.00
2019-05-11T16:46:59.344Z,12.00
2019-05-11T16:49:38.393Z,12.00
2019-05-11T16:52:13.599Z,12.00
2019-05-11T16:54:48.759Z,12.10
2019-05-11T16:57:24.002Z,12.10
2019-05-11T16:59:59.110Z,12.10
2019-05-11T17:02:34.472Z,12.10
2019-05-11T17:05:18.326Z,12.00
2019-05-11T17:07:48.360Z,12.00
2019-05-11T17:10:24.141Z,12.10
2019-05-11T17:12:58.968Z,12.00
2019-05-11T17:15:34.047Z,12.00
2019-05-11T17:18:09.054Z,12.00
2019-05-11T17:20:44.034Z,12.00
2019-05-11T17:23:19.413Z,12.00
2019-05-11T17:25:54.312Z,12.00
2019-05-11T17:28:29.227Z,12.00
2019-05-11T17:31:04.184Z,12.00
2019-05-11T17:33:39.165Z,12.00
2019-05-11T17:36:14.074Z,12.00
2019-05-11T17:38:49.587Z,11.90
2019-05-11T17:41:24.447Z,11.90
2019-05-11T17:44:00.062Z,11.90
2019-05-11T17:46:34.978Z,11.90
2019-05-11T17:49:10.193Z,11.90
2019-05-11T17:51:45.178Z,11.90
2019-05-11T17:54:20.227Z,11.90
2019-05-11T17:56:57.670Z,11.90
2019-05-11T17:59:31.463Z,11.90
2019-05-11T18:02:06.380Z,11.90
2019-05-11T18:04:41.996Z,11.90
2019-05-11T18:07:25.183Z,11.90
2019-05-11T18:09:52.887Z,11.90
2019-05-11T18:12:28.629Z,11.90
2019-05-11T18:15:03.811Z,11.90
2019-05-11T18:17:39.001Z,11.90
2019-05-11T18:20:17.941Z,11.90
2019-05-11T18:23:03.441Z,11.90
2019-05-11T18:25:38.979Z,11.90
2019-05-11T18:28:14.425Z,11.90
2019-05-11T18:30:49.749Z,11.90
2019-05-11T18:33:27.531Z,11.80
2019-05-11T18:36:01.253Z,11.80
2019-05-11T18:38:38.112Z,11.70
2019-05-11T18:41:13.584Z,11.70
2019-05-11T18:43:49.439Z,11.70
2019-05-11T18:46:24.271Z,11.70
2019-05-11T18:49:00.025Z,11.60
2019-05-11T18:51:34.858Z,11.60
2019-05-11T18:54:10.601Z,11.70
2019-05-11T18:56:48.652Z,11.60
2019-05-11T18:59:22.827Z,11.70
2019-05-11T19:01:58.622Z,11.70
2019-05-11T19:04:35.043Z,11.70
2019-05-11T19:07:16.153Z,11.80
2019-05-11T19:09:48.371Z,11.70
2019-05-11T19:12:21.909Z,11.80
2019-05-11T19:14:58.693Z,11.80
2019-05-11T19:17:33.716Z,11.80
2019-05-11T19:20:10.267Z,11.80
2019-05-11T19:22:46.242Z,11.80
2019-05-11T19:25:21.781Z,11.80
2019-05-11T19:27:58.775Z,11.80
2019-05-11T19:30:32.574Z,11.90
2019-05-11T19:33:10.718Z,11.90
2019-05-11T19:35:48.049Z,11.80
2019-05-11T19:38:22.553Z,11.90
2019-05-11T19:40:58.899Z,11.90
2019-05-11T19:43:33.641Z,11.90
2019-05-11T19:46:08.849Z,11.90
2019-05-11T19:48:43.784Z,11.90
2019-05-11T19:51:19.013Z,11.80
2019-05-11T19:53:54.248Z,11.80
2019-05-11T19:56:30.184Z,11.80
2019-05-11T19:59:05.152Z,11.80
2019-05-11T20:01:40.790Z,11.80
2019-05-11T20:04:15.929Z,11.80
2019-05-11T20:06:51.112Z,11.80
2019-05-11T20:09:28.153Z,11.80
2019-05-11T20:12:01.956Z,11.90
2019-05-11T20:14:37.799Z,11.90
2019-05-11T20:17:13.203Z,11.90
2019-05-11T20:19:49.022Z,11.90
2019-05-11T20:22:38.825Z,11.90
2019-05-11T20:25:14.449Z,11.90
2019-05-11T20:27:49.876Z,11.90
2019-05-11T20:30:24.950Z,11.90
2019-05-11T20:33:00.574Z,12.00
2019-05-11T20:35:38.194Z,12.00
2019-05-11T20:38:11.611Z,11.90
2019-05-11T20:40:48.439Z,12.00
2019-05-11T20:43:22.938Z,12.00
2019-05-11T20:45:58.424Z,12.00
2019-05-11T20:48:33.296Z,12.00
2019-05-11T20:51:08.783Z,11.90
2019-05-11T20:53:46.208Z,11.90
2019-05-11T20:56:20.207Z,11.90
2019-05-11T20:58:59.958Z,11.80
2019-05-11T21:01:34.982Z,11.80
2019-05-11T21:04:09.930Z,11.80
2019-05-11T21:06:47.405Z,11.80
2019-05-11T21:09:21.381Z,11.70
2019-05-11T21:12:02.534Z,11.70
2019-05-11T21:14:38.413Z,11.60
2019-05-11T21:17:11.894Z,11.50
2019-05-11T21:19:47.894Z,11.50
2019-05-11T21:22:22.865Z,11.60
2019-05-11T21:24:58.504Z,11.60
2019-05-11T21:27:33.397Z,11.70
2019-05-11T21:30:09.993Z,11.70
2019-05-11T21:32:44.966Z,11.80
2019-05-11T21:35:20.175Z,11.90
2019-05-11T21:37:54.894Z,12.00
2019-05-11T21:40:31.389Z,12.10
2019-05-11T21:43:09.507Z,12.10
2019-05-11T21:45:44.923Z,12.20
2019-05-11T21:48:20.178Z,12.30
2019-05-11T21:50:55.028Z,12.40
2019-05-11T21:53:30.157Z,12.40
2019-05-11T21:56:05.027Z,12.50
2019-05-11T21:58:40.119Z,12.60
2019-05-11T22:01:15.547Z,12.80
2019-05-11T22:03:50.524Z,12.80
2019-05-11T22:06:30.116Z,12.90
2019-05-11T22:09:02.811Z,13.00
2019-05-11T22:11:38.288Z,13.10
2019-05-11T22:14:13.050Z,13.20
2019-05-11T22:16:48.337Z,13.30
2019-05-11T22:19:23.464Z,13.40
2019-05-11T22:21:59.106Z,13.50
2019-05-11T22:24:34.752Z,13.50
2019-05-11T22:27:10.716Z,13.60
2019-05-11T22:29:48.359Z,13.70
2019-05-11T22:32:21.881Z,13.80
2019-05-11T22:34:58.224Z,13.90
2019-05-11T22:37:33.243Z,14.00
2019-05-11T22:40:09.333Z,14.00
2019-05-11T22:42:44.446Z,14.10
2019-05-11T22:45:19.608Z,14.20
2019-05-11T22:47:54.652Z,14.20
2019-05-11T22:50:33.328Z,14.30
2019-05-11T22:53:08.904Z,14.30
2019-05-11T22:55:43.412Z,14.40
2019-05-11T22:58:18.630Z,14.40
2019-05-11T23:00:53.718Z,14.50
2019-05-11T23:03:29.207Z,14.60
2019-05-11T23:06:04.307Z,14.60
2019-05-11T23:08:39.021Z,14.70
2019-05-11T23:11:14.621Z,14.70
2019-05-11T23:13:50.061Z,14.80
2019-05-11T23:16:25.165Z,14.90
2019-05-11T23:19:00.934Z,15.00
2019-05-11T23:21:35.801Z,15.00
2019-05-11T23:24:10.942Z,15.00
2019-05-11T23:26:47.889Z,15.10
2019-05-11T23:29:22.269Z,15.20
2019-05-11T23:31:58.377Z,15.20
2019-05-11T23:34:33.235Z,15.30
2019-05-11T23:37:09.445Z,15.40
2019-05-11T23:40:03.957Z,15.40
2019-05-11T23:42:39.035Z,15.40
2019-05-11T23:45:14.085Z,15.50
2019-05-11T23:47:50.049Z,15.60
2019-05-11T23:50:25.050Z,15.70
2019-05-11T23:53:06.433Z,15.80
2019-05-11T23:55:38.015Z,15.80
2019-05-11T23:58:13.036Z,15.90
